Airfield :
LOGIN :

Register | Disclaimer

   EN    FR    IT 

 










Legend :    VFR   Marginal VFR   IFR   Intensive IFR   Very Intensive IFR
Visi :
Ceiling :
>= 8 km
>= 3000ft
5 to 8 km
1000 to 3000 ft
1500m to 5 km
500 to 1000 ft
800 to 1500m
200 to 500 ft
< 800m
< 200 ft
Symbols :   Thunderstorms  Fog  Heavy snow  Heavy precipitations  Wind > 20 kt
SIGMETs :     Misc.  Thunderstorms  Icing  Turbulence  Mountain Waves  Volcanic Ashes






- Airport Elevation : 102 ft
- IATA code : KEL


EDHK - Holtenau

CURRENT METAR :
  • 280750Z 22010KT 9000 BKN009 11/09 Q1018

EXPIRED METARs :
  • 280720Z 22009KT 190V250 9999 BKN011 11/09 Q1018
  • 280650Z 22009KT 180V240 9999 BKN011 11/09 Q1018
  • 280620Z 22010KT 9999 BKN012 11/09 Q1018
  • 280550Z 23009KT 9999 BKN013 11/09 Q1018
  • 280520Z AUTO 22008KT 190V260 9999 R/////// ///////// 11/09 Q1018

TAF TAF EDHK
Valid from the 28 at 08:00 until the 28 at 15:00 UTC


280705Z 2808/2815 20009KT 9999 BKN010
BECMG 2808/2809 CAVOK



MET'MAP, your aeronautical weather chart ! - Copyright ORBIFLY December 2007 - Disclaimer

ORBIFLY MET'MAP TEAM :

Programming & Development : Alexandra Zaïnal
Concept & original design : Baudouin d'Aumeries
Assistance for programming : Marc-Olivier Méhu
Technical & hardware support : Manuel Goepfert

Contact : metmap@orbifly.com




SOURCES & CREDITS :

   NOAA